Time;durP1;ratioP1;P1;durP2;ratioP2;P2;SDS_P1;SDS_P2;PMS_P1;PMS_P2;Temp;Humidity;BMP_temperature;BMP_pressure;BME280_temperature;BME280_humidity;BME280_pressure;Samples;Min_cycle;Max_cycle;Signal;HPM_P1;HPM_P2
2022/10/11 00:00:45;;;;;;;2.65;1.02;;;;;;;;;;4491943;28;43292;-60
2022/10/11 00:02:56;;;;;;;1.92;0.60;;;;;;;;;;4493431;28;20045;-60
2022/10/11 00:05:08;;;;;;;1.10;0.63;;;;;;;;;;4491419;28;20602;-61
2022/10/11 00:07:19;;;;;;;1.83;0.68;;;;;;;;;;4491707;28;20116;-61
2022/10/11 00:09:29;;;;;;;1.20;0.70;;;;;;;;;;4495653;28;20042;-60
2022/10/11 00:11:40;;;;;;;1.30;0.70;;;;;;;;;;4491379;28;23120;-61
2022/10/11 00:13:50;;;;;;;2.33;0.70;;;;;;;;;;4493176;28;30504;-60
2022/10/11 00:16:06;;;;;;;1.85;0.80;;;;;;;;;;4493037;28;28958;-60
2022/10/11 00:18:16;;;;;;;1.27;0.68;;;;;;;;;;4506906;28;20042;-60
2022/10/11 00:20:26;;;;;;;2.05;0.70;;;;;;;;;;4490563;28;41223;-61
2022/10/11 00:22:37;;;;;;;1.25;0.57;;;;;;;;;;4490216;28;42281;-60
2022/10/11 00:24:48;;;;;;;1.17;0.70;;;;;;;;;;4492161;28;20043;-61
2022/10/11 00:26:58;;;;;;;1.83;0.80;;;;;;;;;;4492471;28;45050;-60
2022/10/11 00:29:09;;;;;;;1.40;0.60;;;;;;;;;;4492141;28;20038;-60
2022/10/11 00:31:19;;;;;;;2.25;0.70;;;;;;;;;;4491768;28;23186;-61
2022/10/11 00:33:29;;;;;;;1.70;0.75;;;;;;;;;;4492803;28;20045;-60
2022/10/11 00:35:40;;;;;;;1.23;0.65;;;;;;;;;;4490665;28;27139;-60
2022/10/11 00:37:51;;;;;;;1.55;0.60;;;;;;;;;;4492746;28;20758;-60
2022/10/11 00:40:05;;;;;;;1.20;0.70;;;;;;;;;;4490992;28;20037;-60
2022/10/11 00:42:16;;;;;;;1.42;0.75;;;;;;;;;;4494447;28;20132;-60
2022/10/11 00:44:27;;;;;;;2.63;0.73;;;;;;;;;;4493512;28;20045;-59
2022/10/11 00:46:40;;;;;;;2.00;0.90;;;;;;;;;;4491324;28;20121;-61
2022/10/11 00:49:04;;;;;;;1.65;0.80;;;;;;;;;;4495734;28;20030;-60
2022/10/11 00:51:37;;;;;;;1.90;0.80;;;;;;;;;;4499094;28;20595;-60
2022/10/11 00:53:48;;;;;;;1.45;0.60;;;;;;;;;;4499895;28;20683;-60
2022/10/11 00:56:05;;;;;;;1.65;0.60;;;;;;;;;;4477167;28;20801;-60
2022/10/11 00:58:17;;;;;;;2.83;0.90;;;;;;;;;;4491023;28;20140;-61
2022/10/11 01:00:28;;;;;;;1.88;0.68;;;;;;;;;;4491528;28;20085;-60
2022/10/11 01:02:39;;;;;;;1.48;0.60;;;;;;;;;;4490565;28;20082;-60
2022/10/11 01:04:49;;;;;;;1.98;0.60;;;;;;;;;;4499981;28;20687;-60
2022/10/11 01:07:01;;;;;;;1.42;0.60;;;;;;;;;;4489942;28;20041;-61
2022/10/11 01:09:12;;;;;;;1.92;0.82;;;;;;;;;;4493741;28;20061;-60
2022/10/11 01:11:25;;;;;;;1.50;0.70;;;;;;;;;;4490927;28;20046;-60
2022/10/11 01:14:18;;;;;;;1.67;0.70;;;;;;;;;;4490352;28;20038;-60
2022/10/11 01:16:33;;;;;;;1.38;0.70;;;;;;;;;;4494744;28;20141;-60
2022/10/11 01:19:02;;;;;;;2.28;0.82;;;;;;;;;;4482567;28;20184;-60
2022/10/11 01:21:26;;;;;;;0.85;0.70;;;;;;;;;;4493193;28;20038;-60
2022/10/11 01:24:17;;;;;;;2.38;0.88;;;;;;;;;;4495014;28;20038;-60
2022/10/11 01:26:39;;;;;;;1.88;0.80;;;;;;;;;;4486416;28;20399;-61
2022/10/11 01:28:55;;;;;;;2.13;0.75;;;;;;;;;;4486925;28;20039;-60
2022/10/11 01:31:47;;;;;;;1.58;0.80;;;;;;;;;;4493396;28;20049;-60
2022/10/11 01:34:02;;;;;;;2.08;0.80;;;;;;;;;;4482221;28;20046;-60
2022/10/11 01:36:31;;;;;;;1.60;0.73;;;;;;;;;;4485475;28;20572;-60
2022/10/11 01:38:46;;;;;;;1.45;0.70;;;;;;;;;;4493680;28;20076;-60
2022/10/11 01:41:19;;;;;;;2.00;0.80;;;;;;;;;;4494411;28;20026;-60
2022/10/11 01:43:31;;;;;;;2.08;0.80;;;;;;;;;;4509606;28;20053;-60
2022/10/11 01:45:42;;;;;;;1.70;0.80;;;;;;;;;;4493597;28;20025;-60
2022/10/11 01:48:08;;;;;;;1.95;0.82;;;;;;;;;;4493342;28;20038;-60
2022/10/11 01:50:36;;;;;;;2.08;0.85;;;;;;;;;;4492608;28;20073;-61
2022/10/11 01:52:47;;;;;;;1.15;0.70;;;;;;;;;;4493294;28;20038;-60
2022/10/11 01:55:18;;;;;;;1.40;0.70;;;;;;;;;;4492352;28;26574;-60
2022/10/11 01:57:59;;;;;;;1.85;0.80;;;;;;;;;;4501701;28;20049;-60
2022/10/11 02:00:37;;;;;;;1.50;0.70;;;;;;;;;;4494313;28;20066;-61
2022/10/11 02:02:53;;;;;;;1.60;1.07;;;;;;;;;;4493357;28;20033;-60
2022/10/11 02:05:23;;;;;;;2.13;1.00;;;;;;;;;;4494109;28;20525;-60
2022/10/11 02:08:00;;;;;;;2.33;1.00;;;;;;;;;;4495702;28;20112;-59
2022/10/11 02:10:16;;;;;;;2.60;1.20;;;;;;;;;;4490465;28;20051;-60
2022/10/11 02:12:31;;;;;;;3.83;1.70;;;;;;;;;;4497054;28;20085;-60
2022/10/11 02:14:44;;;;;;;2.75;1.75;;;;;;;;;;4497153;28;20152;-60
2022/10/11 02:17:00;;;;;;;3.70;1.70;;;;;;;;;;4478369;28;20042;-60
2022/10/11 02:19:13;;;;;;;3.38;1.48;;;;;;;;;;4493909;28;20035;-60
2022/10/11 02:21:24;;;;;;;2.35;1.02;;;;;;;;;;4485034;28;20038;-60
2022/10/11 02:23:39;;;;;;;2.15;1.10;;;;;;;;;;4494529;28;20042;-60
2022/10/11 02:25:51;;;;;;;2.10;1.10;;;;;;;;;;4498328;28;20791;-60
2022/10/11 02:28:10;;;;;;;2.58;1.00;;;;;;;;;;4494647;28;24904;-60
2022/10/11 02:30:20;;;;;;;2.15;1.00;;;;;;;;;;4502502;28;21040;-60
2022/10/11 02:32:31;;;;;;;1.30;0.90;;;;;;;;;;4491707;28;24818;-60
2022/10/11 02:34:46;;;;;;;2.50;1.00;;;;;;;;;;4495238;28;20044;-60
2022/10/11 02:37:03;;;;;;;1.73;0.85;;;;;;;;;;4484766;28;20673;-60
2022/10/11 02:39:23;;;;;;;1.75;0.93;;;;;;;;;;4493295;28;20042;-60
2022/10/11 02:41:37;;;;;;;2.47;0.80;;;;;;;;;;4490560;28;20089;-60
2022/10/11 02:43:56;;;;;;;2.13;0.90;;;;;;;;;;4493557;28;20133;-60
2022/10/11 02:46:07;;;;;;;1.35;0.80;;;;;;;;;;4497013;28;20041;-60
2022/10/11 02:48:18;;;;;;;1.73;0.88;;;;;;;;;;4497152;28;37083;-60
2022/10/11 02:50:28;;;;;;;1.90;0.90;;;;;;;;;;4501585;28;20714;-60
2022/10/11 02:52:39;;;;;;;3.28;1.20;;;;;;;;;;4490858;28;33046;-60
2022/10/11 02:54:49;;;;;;;2.58;1.33;;;;;;;;;;4478907;28;20050;-60
2022/10/11 02:56:59;;;;;;;1.90;1.13;;;;;;;;;;4490861;28;26344;-60
2022/10/11 02:59:10;;;;;;;2.33;1.20;;;;;;;;;;4494058;28;20038;-60
2022/10/11 03:01:20;;;;;;;2.30;1.20;;;;;;;;;;4493982;28;20018;-61
2022/10/11 03:03:31;;;;;;;1.27;0.85;;;;;;;;;;4492363;28;20392;-60
2022/10/11 03:05:42;;;;;;;1.63;0.80;;;;;;;;;;4490942;28;42645;-60
2022/10/11 03:07:52;;;;;;;2.38;1.05;;;;;;;;;;4495523;28;20042;-60
2022/10/11 03:10:04;;;;;;;2.53;1.00;;;;;;;;;;4492261;28;30483;-60
2022/10/11 03:12:14;;;;;;;1.67;1.20;;;;;;;;;;4492481;28;20044;-60
2022/10/11 03:14:25;;;;;;;1.27;0.90;;;;;;;;;;4492847;28;32742;-60
2022/10/11 03:16:35;;;;;;;1.98;0.98;;;;;;;;;;4492793;28;20045;-60
2022/10/11 03:18:46;;;;;;;1.92;0.88;;;;;;;;;;4493676;28;30385;-60
2022/10/11 03:20:56;;;;;;;1.73;1.00;;;;;;;;;;4493311;28;20038;-60
2022/10/11 03:23:07;;;;;;;2.72;1.08;;;;;;;;;;4492796;28;33866;-60
2022/10/11 03:25:17;;;;;;;1.20;0.90;;;;;;;;;;4492426;28;20088;-60
2022/10/11 03:27:27;;;;;;;2.38;0.90;;;;;;;;;;4492083;28;20776;-60
2022/10/11 03:29:38;;;;;;;1.48;1.10;;;;;;;;;;4491832;28;21593;-60
2022/10/11 03:31:48;;;;;;;1.83;1.10;;;;;;;;;;4493791;28;20034;-60
2022/10/11 03:33:59;;;;;;;1.75;0.90;;;;;;;;;;4491304;28;20038;-60
2022/10/11 03:36:09;;;;;;;1.80;1.00;;;;;;;;;;4492788;28;20041;-60
2022/10/11 03:38:21;;;;;;;1.35;0.90;;;;;;;;;;4491359;28;37227;-60
2022/10/11 03:40:31;;;;;;;1.15;0.80;;;;;;;;;;4496050;28;20040;-61
2022/10/11 03:42:42;;;;;;;1.20;0.80;;;;;;;;;;4492287;28;28276;-60
2022/10/11 03:44:52;;;;;;;1.25;0.73;;;;;;;;;;4489570;28;31192;-60
2022/10/11 03:47:03;;;;;;;1.27;0.70;;;;;;;;;;4491957;28;20044;-60
2022/10/11 03:49:13;;;;;;;0.40;0.40;;;;;;;;;;4492742;28;20098;-60
2022/10/11 03:51:23;;;;;;;0.60;0.40;;;;;;;;;;4490109;28;20102;-60
2022/10/11 03:53:34;;;;;;;0.88;0.60;;;;;;;;;;4492595;28;43482;-60
2022/10/11 03:55:44;;;;;;;0.82;0.50;;;;;;;;;;4492116;28;37782;-60
2022/10/11 03:57:54;;;;;;;0.60;0.60;;;;;;;;;;4491513;28;20042;-60
2022/10/11 04:00:06;;;;;;;0.95;0.70;;;;;;;;;;4490982;28;31134;-60
2022/10/11 04:02:16;;;;;;;0.85;0.75;;;;;;;;;;4493579;28;20034;-60
2022/10/11 04:04:27;;;;;;;1.08;0.60;;;;;;;;;;4492208;28;20726;-60
2022/10/11 04:06:37;;;;;;;1.08;0.65;;;;;;;;;;4491705;28;20088;-60
2022/10/11 04:08:47;;;;;;;0.85;0.60;;;;;;;;;;4491763;28;21463;-61
2022/10/11 04:10:58;;;;;;;1.48;0.68;;;;;;;;;;4491387;28;32379;-60
2022/10/11 04:13:10;;;;;;;1.27;0.80;;;;;;;;;;4491794;28;20396;-60
2022/10/11 04:15:20;;;;;;;0.73;0.73;;;;;;;;;;4492876;28;20096;-60
2022/10/11 04:17:30;;;;;;;0.95;0.60;;;;;;;;;;4492137;28;20480;-60
2022/10/11 04:19:41;;;;;;;0.95;0.70;;;;;;;;;;4492447;28;20065;-60
2022/10/11 04:21:51;;;;;;;1.80;0.90;;;;;;;;;;4490364;28;37902;-60
2022/10/11 04:24:02;;;;;;;1.30;0.80;;;;;;;;;;4490961;28;39796;-60
2022/10/11 04:26:12;;;;;;;0.70;0.70;;;;;;;;;;4492198;28;20033;-60
2022/10/11 04:28:22;;;;;;;1.35;0.70;;;;;;;;;;4494363;28;23890;-60
2022/10/11 04:30:33;;;;;;;1.38;0.80;;;;;;;;;;4490923;28;20500;-60
2022/10/11 04:32:44;;;;;;;1.77;0.93;;;;;;;;;;4499322;28;24267;-60
2022/10/11 04:34:54;;;;;;;1.48;1.08;;;;;;;;;;4491239;28;20034;-60
2022/10/11 04:37:05;;;;;;;0.80;0.65;;;;;;;;;;4491390;28;20121;-60
2022/10/11 04:39:15;;;;;;;0.80;0.60;;;;;;;;;;4489864;28;42109;-60
2022/10/11 04:41:26;;;;;;;0.68;0.68;;;;;;;;;;4490912;28;20270;-59
2022/10/11 04:43:37;;;;;;;0.77;0.60;;;;;;;;;;4495743;28;20301;-60
2022/10/11 04:45:47;;;;;;;0.52;0.50;;;;;;;;;;4492042;28;20038;-60
2022/10/11 04:47:58;;;;;;;0.50;0.50;;;;;;;;;;4491852;28;20034;-60
2022/10/11 04:50:08;;;;;;;0.60;0.60;;;;;;;;;;4492128;28;20746;-60
2022/10/11 04:52:19;;;;;;;0.88;0.75;;;;;;;;;;4491301;28;20334;-60
2022/10/11 04:54:29;;;;;;;0.70;0.63;;;;;;;;;;4489867;28;20166;-60
2022/10/11 04:56:39;;;;;;;0.63;0.60;;;;;;;;;;4492559;28;20053;-60
2022/10/11 04:58:53;;;;;;;0.88;0.70;;;;;;;;;;4495054;28;20068;-60
2022/10/11 05:01:03;;;;;;;0.93;0.65;;;;;;;;;;4496825;28;20038;-60
2022/10/11 05:03:13;;;;;;;0.80;0.65;;;;;;;;;;4493743;28;20042;-60
2022/10/11 05:05:24;;;;;;;0.70;0.60;;;;;;;;;;4493304;28;36544;-60
2022/10/11 05:07:34;;;;;;;0.90;0.60;;;;;;;;;;4493514;28;27419;-60
2022/10/11 05:09:45;;;;;;;0.55;0.55;;;;;;;;;;4494314;28;20570;-60
2022/10/11 05:11:55;;;;;;;0.93;0.60;;;;;;;;;;4495578;28;20042;-60
2022/10/11 05:14:05;;;;;;;0.50;0.50;;;;;;;;;;4493776;28;21373;-60
2022/10/11 05:16:16;;;;;;;0.60;0.60;;;;;;;;;;4493083;28;20042;-60
2022/10/11 05:18:27;;;;;;;0.57;0.52;;;;;;;;;;4493470;28;20042;-60
2022/10/11 05:20:37;;;;;;;0.50;0.50;;;;;;;;;;4493273;28;20038;-60
2022/10/11 05:22:48;;;;;;;0.60;0.60;;;;;;;;;;4492961;28;20034;-60
2022/10/11 05:24:58;;;;;;;0.50;0.50;;;;;;;;;;4493459;28;23282;-60
2022/10/11 05:27:09;;;;;;;0.70;0.70;;;;;;;;;;4490693;28;36092;-60
2022/10/11 05:29:19;;;;;;;0.70;0.70;;;;;;;;;;4494411;28;28713;-60
2022/10/11 05:31:29;;;;;;;0.55;0.55;;;;;;;;;;4492806;28;34432;-60
2022/10/11 05:33:40;;;;;;;0.60;0.50;;;;;;;;;;4494203;28;20023;-60
2022/10/11 05:35:50;;;;;;;0.70;0.57;;;;;;;;;;4493393;28;20047;-60
2022/10/11 05:38:01;;;;;;;1.38;0.68;;;;;;;;;;4493870;28;20050;-60
2022/10/11 05:40:11;;;;;;;0.88;0.60;;;;;;;;;;4501950;28;20225;-60
2022/10/11 05:42:22;;;;;;;0.65;0.57;;;;;;;;;;4495359;28;20456;-60
2022/10/11 05:44:32;;;;;;;0.77;0.55;;;;;;;;;;4493695;28;25754;-60
2022/10/11 05:46:43;;;;;;;0.70;0.57;;;;;;;;;;4491590;28;41077;-60
2022/10/11 05:48:53;;;;;;;0.65;0.60;;;;;;;;;;4492943;28;20049;-60
2022/10/11 05:51:06;;;;;;;0.77;0.50;;;;;;;;;;4493011;28;20106;-60
2022/10/11 05:53:16;;;;;;;0.50;0.50;;;;;;;;;;4500967;28;20093;-60
2022/10/11 05:55:27;;;;;;;0.50;0.50;;;;;;;;;;4492934;28;20066;-60
2022/10/11 05:57:37;;;;;;;0.50;0.50;;;;;;;;;;4490812;28;29792;-60
2022/10/11 05:59:47;;;;;;;0.40;0.40;;;;;;;;;;4495508;28;37773;-59
2022/10/11 06:01:58;;;;;;;0.55;0.55;;;;;;;;;;4493227;28;20045;-60
2022/10/11 06:04:10;;;;;;;1.00;0.60;;;;;;;;;;4494604;28;20034;-60
2022/10/11 06:06:21;;;;;;;0.82;0.60;;;;;;;;;;4492147;28;20141;-59
2022/10/11 06:08:32;;;;;;;0.50;0.50;;;;;;;;;;4491638;28;20710;-60
2022/10/11 06:10:43;;;;;;;0.52;0.52;;;;;;;;;;4493252;28;20026;-60
2022/10/11 06:12:54;;;;;;;0.55;0.55;;;;;;;;;;4493950;28;20034;-59
2022/10/11 06:15:05;;;;;;;1.17;0.65;;;;;;;;;;4477975;28;36398;-60
2022/10/11 06:17:15;;;;;;;0.60;0.60;;;;;;;;;;4490974;28;20034;-60
2022/10/11 06:19:26;;;;;;;0.80;0.80;;;;;;;;;;4492079;28;20697;-61
2022/10/11 06:21:37;;;;;;;0.63;0.63;;;;;;;;;;4493663;28;20046;-61
2022/10/11 06:23:51;;;;;;;0.70;0.60;;;;;;;;;;4492300;28;20109;-61
2022/10/11 06:26:04;;;;;;;0.68;0.65;;;;;;;;;;4492848;28;20073;-60
2022/10/11 06:28:14;;;;;;;1.08;0.98;;;;;;;;;;4492938;28;20587;-61
2022/10/11 06:30:25;;;;;;;0.60;0.60;;;;;;;;;;4495252;28;34070;-60
2022/10/11 06:32:35;;;;;;;0.80;0.80;;;;;;;;;;4494062;28;20141;-61
2022/10/11 06:34:46;;;;;;;0.88;0.88;;;;;;;;;;4477847;28;20082;-61
2022/10/11 06:36:57;;;;;;;0.88;0.88;;;;;;;;;;4492670;28;20566;-61
2022/10/11 06:39:07;;;;;;;0.70;0.70;;;;;;;;;;4493433;28;20049;-61
2022/10/11 06:41:23;;;;;;;1.30;1.20;;;;;;;;;;4492929;28;25788;-60
2022/10/11 06:43:33;;;;;;;1.08;0.90;;;;;;;;;;4493266;28;20038;-60
2022/10/11 06:45:44;;;;;;;0.93;0.82;;;;;;;;;;4496971;28;20041;-60
2022/10/11 06:47:54;;;;;;;1.17;0.90;;;;;;;;;;4492545;28;23094;-61
2022/10/11 06:50:05;;;;;;;0.65;0.63;;;;;;;;;;4494701;28;23297;-60
2022/10/11 06:52:15;;;;;;;1.02;0.93;;;;;;;;;;4491632;28;20034;-60
2022/10/11 06:54:26;;;;;;;1.02;0.93;;;;;;;;;;4492504;28;20068;-60
2022/10/11 06:56:36;;;;;;;1.05;1.00;;;;;;;;;;4500352;28;29274;-60
2022/10/11 06:58:47;;;;;;;0.70;0.70;;;;;;;;;;4500950;28;22529;-60
2022/10/11 07:01:08;;;;;;;1.00;0.90;;;;;;;;;;4492511;28;20034;-60
2022/10/11 07:03:19;;;;;;;0.85;0.85;;;;;;;;;;4494733;28;20042;-60
2022/10/11 07:05:31;;;;;;;1.40;0.90;;;;;;;;;;4493202;28;20958;-60
2022/10/11 07:07:42;;;;;;;0.77;0.77;;;;;;;;;;4493643;28;20050;-60
2022/10/11 07:09:52;;;;;;;0.80;0.80;;;;;;;;;;4501477;28;20037;-60
2022/10/11 07:12:02;;;;;;;0.80;0.80;;;;;;;;;;4492738;28;20935;-61
2022/10/11 07:14:13;;;;;;;1.00;0.90;;;;;;;;;;4493647;28;20041;-60
2022/10/11 07:16:24;;;;;;;1.10;0.90;;;;;;;;;;4491732;28;21901;-61
2022/10/11 07:18:34;;;;;;;1.13;0.98;;;;;;;;;;4495378;28;20111;-60
2022/10/11 07:20:45;;;;;;;0.80;0.80;;;;;;;;;;4491587;28;28967;-60
2022/10/11 07:22:56;;;;;;;0.85;0.85;;;;;;;;;;4493033;28;20038;-60
2022/10/11 07:25:07;;;;;;;0.65;0.65;;;;;;;;;;4494896;28;20041;-60
2022/10/11 07:27:17;;;;;;;1.33;0.88;;;;;;;;;;4492745;28;20026;-61
2022/10/11 07:29:27;;;;;;;0.90;0.80;;;;;;;;;;4493719;28;35475;-60
2022/10/11 07:31:40;;;;;;;0.82;0.80;;;;;;;;;;4494471;28;20042;-63
2022/10/11 07:33:51;;;;;;;0.85;0.85;;;;;;;;;;4481385;28;20039;-64
2022/10/11 07:36:01;;;;;;;1.05;0.90;;;;;;;;;;4494037;28;20049;-60
2022/10/11 07:38:12;;;;;;;1.10;1.00;;;;;;;;;;4494412;28;20120;-61
2022/10/11 07:40:23;;;;;;;1.10;1.00;;;;;;;;;;4492952;28;20039;-61
2022/10/11 07:42:33;;;;;;;1.27;1.00;;;;;;;;;;4500742;28;28570;-60
2022/10/11 07:44:43;;;;;;;1.15;1.00;;;;;;;;;;4491711;28;20937;-61
2022/10/11 07:46:54;;;;;;;0.93;0.90;;;;;;;;;;4494023;28;20038;-61
2022/10/11 07:49:04;;;;;;;1.60;1.02;;;;;;;;;;4490966;28;26911;-60
2022/10/11 07:51:18;;;;;;;1.20;1.02;;;;;;;;;;4491552;28;20029;-60
2022/10/11 07:53:29;;;;;;;2.30;0.98;;;;;;;;;;4507261;28;20109;-60
2022/10/11 07:55:39;;;;;;;1.20;1.10;;;;;;;;;;4491825;28;20053;-60
2022/10/11 07:57:49;;;;;;;1.17;1.08;;;;;;;;;;4494079;28;20418;-60
2022/10/11 08:00:00;;;;;;;1.50;1.30;;;;;;;;;;4492255;28;20034;-60
2022/10/11 08:02:11;;;;;;;2.15;1.58;;;;;;;;;;4491779;28;20751;-60
2022/10/11 08:04:22;;;;;;;1.85;1.33;;;;;;;;;;4499796;28;20626;-59
2022/10/11 08:06:32;;;;;;;1.70;1.25;;;;;;;;;;4492408;28;20604;-60
2022/10/11 08:08:43;;;;;;;2.85;1.90;;;;;;;;;;4491533;28;20035;-58
2022/10/11 08:10:54;;;;;;;2.10;1.83;;;;;;;;;;4491886;28;20034;-61
2022/10/11 08:13:05;;;;;;;3.45;2.17;;;;;;;;;;4484413;28;20039;-59
2022/10/11 08:15:15;;;;;;;4.28;2.22;;;;;;;;;;4492480;28;20046;-60
2022/10/11 08:17:26;;;;;;;4.78;2.72;;;;;;;;;;4491333;28;20110;-60
2022/10/11 08:19:36;;;;;;;3.95;3.00;;;;;;;;;;4494047;28;20121;-59
2022/10/11 08:21:47;;;;;;;4.53;2.80;;;;;;;;;;4491922;28;33382;-60
2022/10/11 08:23:57;;;;;;;6.03;3.30;;;;;;;;;;4491673;28;20706;-59
2022/10/11 08:26:08;;;;;;;4.55;3.28;;;;;;;;;;4491240;28;20042;-59
2022/10/11 08:28:19;;;;;;;5.10;3.10;;;;;;;;;;4493564;28;20620;-58
2022/10/11 08:30:30;;;;;;;6.05;3.40;;;;;;;;;;4492822;28;20073;-59
2022/10/11 08:32:40;;;;;;;5.80;3.65;;;;;;;;;;4501517;28;20467;-59
2022/10/11 08:34:51;;;;;;;5.43;3.58;;;;;;;;;;4491496;28;21002;-59
2022/10/11 08:37:02;;;;;;;5.78;4.05;;;;;;;;;;4493652;28;20064;-59
2022/10/11 08:39:12;;;;;;;5.38;3.90;;;;;;;;;;4491974;28;20050;-59
2022/10/11 08:41:30;;;;;;;5.80;3.83;;;;;;;;;;4493504;28;29738;-59
2022/10/11 08:43:40;;;;;;;5.80;4.00;;;;;;;;;;4500130;28;20762;-59
2022/10/11 08:45:53;;;;;;;5.60;3.80;;;;;;;;;;4484409;28;20045;-59
2022/10/11 08:48:45;;;;;;;5.65;3.92;;;;;;;;;;4494749;28;20046;-72
2022/10/11 08:50:56;;;;;;;5.30;3.90;;;;;;;;;;4466584;28;20148;-72
2022/10/11 08:53:16;;;;;;;6.38;4.38;;;;;;;;;;4500071;28;20104;-73
2022/10/11 08:55:47;;;;;;;5.57;4.00;;;;;;;;;;4500279;28;20764;-72
2022/10/11 08:57:57;;;;;;;7.35;4.20;;;;;;;;;;4500062;28;20615;-68
2022/10/11 09:00:13;;;;;;;5.72;3.72;;;;;;;;;;4489863;28;20034;-61
2022/10/11 09:02:39;;;;;;;6.10;4.35;;;;;;;;;;4498972;28;20038;-60
2022/10/11 09:04:51;;;;;;;6.68;4.30;;;;;;;;;;4499748;28;20698;-60
2022/10/11 09:07:28;;;;;;;4.95;3.63;;;;;;;;;;4495702;28;20138;-60
2022/10/11 09:09:46;;;;;;;5.95;4.13;;;;;;;;;;4491076;28;20045;-60
2022/10/11 09:12:06;;;;;;;6.10;4.05;;;;;;;;;;4490582;28;20030;-59
2022/10/11 09:14:48;;;;;;;6.28;4.18;;;;;;;;;;4493640;28;20038;-59
2022/10/11 09:17:16;;;;;;;6.40;4.13;;;;;;;;;;4489623;28;20038;-60
2022/10/11 09:19:29;;;;;;;6.70;4.22;;;;;;;;;;4490572;28;20164;-60
2022/10/11 09:21:42;;;;;;;5.45;4.18;;;;;;;;;;4491477;28;20035;-59
2022/10/11 09:24:12;;;;;;;5.25;3.75;;;;;;;;;;4499025;28;20038;-60
2022/10/11 09:26:36;;;;;;;4.72;3.78;;;;;;;;;;4491197;28;20041;-60
2022/10/11 09:28:57;;;;;;;5.18;3.85;;;;;;;;;;4491683;28;20057;-60
2022/10/11 09:31:09;;;;;;;5.43;4.10;;;;;;;;;;4495098;28;20034;-60
2022/10/11 09:33:32;;;;;;;4.15;3.20;;;;;;;;;;4490803;28;20038;-60
2022/10/11 09:35:49;;;;;;;4.85;3.60;;;;;;;;;;4491444;28;20054;-59
2022/10/11 09:38:01;;;;;;;5.20;3.92;;;;;;;;;;4490547;28;20977;-60
2022/10/11 09:40:35;;;;;;;5.50;3.58;;;;;;;;;;4489503;28;20038;-60
2022/10/11 09:42:45;;;;;;;4.88;3.33;;;;;;;;;;4494626;28;21312;-60
2022/10/11 09:44:56;;;;;;;4.57;3.47;;;;;;;;;;4493157;28;20043;-61
2022/10/11 09:47:11;;;;;;;5.88;3.40;;;;;;;;;;4493210;28;20069;-60
2022/10/11 09:49:28;;;;;;;3.97;2.80;;;;;;;;;;4493860;28;20117;-60
2022/10/11 09:51:40;;;;;;;3.63;2.75;;;;;;;;;;4493001;28;20116;-60
2022/10/11 09:53:53;;;;;;;4.30;3.00;;;;;;;;;;4497621;28;20069;-60
2022/10/11 09:56:03;;;;;;;3.58;2.50;;;;;;;;;;4494865;28;20026;-60
2022/10/11 09:58:34;;;;;;;4.93;2.85;;;;;;;;;;4492481;28;20878;-60
2022/10/11 10:00:56;;;;;;;4.03;3.08;;;;;;;;;;4493565;28;20042;-60
2022/10/11 10:03:26;;;;;;;5.28;2.80;;;;;;;;;;4493237;28;20035;-59
2022/10/11 10:05:37;;;;;;;4.20;2.55;;;;;;;;;;4494064;28;20038;-60
2022/10/11 10:07:59;;;;;;;3.30;2.30;;;;;;;;;;4492864;28;20039;-59
2022/10/11 10:10:41;;;;;;;3.53;2.13;;;;;;;;;;4494106;28;20097;-60
2022/10/11 10:12:58;;;;;;;3.83;2.40;;;;;;;;;;4494908;28;20042;-59
2022/10/11 10:15:18;;;;;;;4.45;2.58;;;;;;;;;;4491011;28;21023;-59
2022/10/11 10:17:28;;;;;;;3.80;2.22;;;;;;;;;;4491691;28;20034;-60
2022/10/11 10:19:45;;;;;;;2.97;2.20;;;;;;;;;;4493648;28;20046;-59
2022/10/11 10:21:56;;;;;;;3.78;2.20;;;;;;;;;;4500776;28;20026;-59
2022/10/11 10:24:16;;;;;;;3.58;2.00;;;;;;;;;;4492155;28;20038;-59
2022/10/11 10:26:26;;;;;;;4.15;2.30;;;;;;;;;;4466122;28;20039;-59
2022/10/11 10:28:37;;;;;;;4.30;2.05;;;;;;;;;;4492984;28;20576;-59
2022/10/11 10:30:54;;;;;;;3.33;1.75;;;;;;;;;;4494580;28;20041;-59
2022/10/11 10:33:10;;;;;;;3.78;2.13;;;;;;;;;;4492935;28;21010;-59
2022/10/11 10:35:44;;;;;;;3.28;2.00;;;;;;;;;;4493239;28;20046;-59
2022/10/11 10:38:07;;;;;;;3.65;1.95;;;;;;;;;;4492659;28;20574;-59
2022/10/11 10:40:21;;;;;;;3.65;2.15;;;;;;;;;;4497773;28;20591;-59
2022/10/11 10:42:31;;;;;;;4.50;2.40;;;;;;;;;;4501910;28;20040;-59
2022/10/11 10:44:42;;;;;;;2.67;2.10;;;;;;;;;;4497248;28;20044;-59
2022/10/11 10:47:09;;;;;;;4.03;2.38;;;;;;;;;;4492312;28;20396;-60
2022/10/11 10:49:41;;;;;;;3.70;2.00;;;;;;;;;;4497301;28;20133;-59
2022/10/11 10:52:16;;;;;;;3.65;2.30;;;;;;;;;;4492138;28;20108;-60
2022/10/11 10:54:48;;;;;;;3.55;2.10;;;;;;;;;;4492404;28;20097;-59
2022/10/11 10:57:02;;;;;;;2.88;1.90;;;;;;;;;;4491730;28;20974;-59
2022/10/11 10:59:31;;;;;;;2.72;1.98;;;;;;;;;;4499912;28;20562;-59
2022/10/11 11:01:53;;;;;;;4.00;1.88;;;;;;;;;;4492725;28;21082;-60
2022/10/11 11:04:29;;;;;;;3.75;2.03;;;;;;;;;;4491644;28;20601;-60
2022/10/11 11:07:21;;;;;;;3.05;2.10;;;;;;;;;;4484549;28;20039;-59
2022/10/11 11:09:34;;;;;;;3.92;2.00;;;;;;;;;;4492187;28;20050;-59
2022/10/11 11:12:11;;;;;;;2.47;1.60;;;;;;;;;;4493624;28;20042;-59
2022/10/11 11:14:52;;;;;;;4.05;1.90;;;;;;;;;;4453155;28;20666;-59
2022/10/11 11:17:18;;;;;;;2.38;1.60;;;;;;;;;;4495566;28;20145;-60
2022/10/11 11:19:38;;;;;;;3.30;1.42;;;;;;;;;;4493429;28;20049;-60
2022/10/11 11:22:12;;;;;;;3.72;1.70;;;;;;;;;;4491515;28;20505;-60
2022/10/11 11:25:14;;;;;;;2.42;1.48;;;;;;;;;;4491598;28;20046;-59
2022/10/11 11:28:01;;;;;;;2.80;1.30;;;;;;;;;;4429270;28;20974;-59
2022/10/11 11:30:25;;;;;;;2.03;1.20;;;;;;;;;;4436907;28;20044;-59
2022/10/11 11:33:02;;;;;;;2.35;1.35;;;;;;;;;;4492563;28;20169;-59
2022/10/11 11:35:23;;;;;;;2.03;1.38;;;;;;;;;;4481571;28;20088;-60
2022/10/11 11:37:36;;;;;;;4.00;1.20;;;;;;;;;;4491913;28;20390;-60
2022/10/11 11:39:51;;;;;;;1.88;1.25;;;;;;;;;;4491164;28;20050;-60
2022/10/11 11:42:10;;;;;;;2.70;1.40;;;;;;;;;;4490431;28;20104;-59
2022/10/11 11:44:32;;;;;;;2.40;1.38;;;;;;;;;;4493305;28;20120;-60
2022/10/11 11:46:57;;;;;;;2.15;1.25;;;;;;;;;;4492295;28;20576;-60
2022/10/11 11:49:15;;;;;;;1.42;1.10;;;;;;;;;;4496817;28;20030;-59
2022/10/11 11:51:42;;;;;;;2.97;1.38;;;;;;;;;;4490881;28;20619;-60
2022/10/11 11:54:05;;;;;;;2.47;1.30;;;;;;;;;;4492860;28;20037;-60
2022/10/11 11:56:44;;;;;;;2.58;1.20;;;;;;;;;;4493714;28;20058;-60
2022/10/11 11:59:19;;;;;;;2.20;1.20;;;;;;;;;;4490666;28;20033;-61
2022/10/11 12:01:51;;;;;;;2.33;1.00;;;;;;;;;;4491824;28;20034;-60
2022/10/11 12:04:07;;;;;;;2.33;1.02;;;;;;;;;;4497067;28;20042;-60
2022/10/11 12:06:25;;;;;;;2.43;0.93;;;;;;;;;;4492129;28;20062;-60
2022/10/11 12:08:37;;;;;;;2.00;1.08;;;;;;;;;;4482285;28;20130;-60
2022/10/11 12:10:47;;;;;;;2.50;1.20;;;;;;;;;;4498965;28;20079;-59
2022/10/11 12:13:16;;;;;;;2.15;0.88;;;;;;;;;;4491003;28;20105;-59
2022/10/11 12:15:26;;;;;;;2.03;1.00;;;;;;;;;;4500139;28;20061;-59
2022/10/11 12:17:52;;;;;;;2.58;1.00;;;;;;;;;;4492379;28;20030;-60
2022/10/11 12:20:08;;;;;;;1.67;0.95;;;;;;;;;;4492028;28;20038;-60
2022/10/11 12:22:48;;;;;;;2.83;0.73;;;;;;;;;;4491937;28;20034;-59
2022/10/11 12:25:08;;;;;;;1.90;0.80;;;;;;;;;;4490903;28;20144;-59
2022/10/11 12:27:38;;;;;;;1.38;0.73;;;;;;;;;;4491752;28;20026;-59
2022/10/11 12:29:49;;;;;;;2.13;0.80;;;;;;;;;;4499145;28;20436;-63
2022/10/11 12:31:59;;;;;;;2.10;1.05;;;;;;;;;;4494879;28;20042;-59
2022/10/11 12:34:18;;;;;;;1.77;0.75;;;;;;;;;;4491922;28;20030;-61
2022/10/11 12:36:46;;;;;;;1.27;0.80;;;;;;;;;;4493551;28;20140;-60
2022/10/11 12:39:19;;;;;;;2.33;0.93;;;;;;;;;;4494714;28;20617;-61
2022/10/11 12:41:47;;;;;;;1.77;0.75;;;;;;;;;;4491071;28;20038;-60
2022/10/11 12:44:21;;;;;;;2.53;0.90;;;;;;;;;;4495577;28;20034;-60
2022/10/11 12:46:40;;;;;;;1.40;0.75;;;;;;;;;;4499268;28;20034;-60
2022/10/11 12:49:03;;;;;;;1.85;0.88;;;;;;;;;;4491617;28;20034;-59
2022/10/11 12:51:34;;;;;;;1.70;0.88;;;;;;;;;;4491280;28;20042;-60
2022/10/11 12:54:00;;;;;;;1.65;0.90;;;;;;;;;;4491227;28;20046;-59
2022/10/11 12:56:38;;;;;;;2.55;0.95;;;;;;;;;;4490879;28;20052;-59
2022/10/11 12:58:48;;;;;;;1.67;0.65;;;;;;;;;;4491210;28;20567;-59
2022/10/11 13:00:59;;;;;;;1.50;0.57;;;;;;;;;;4478245;28;20039;-59
2022/10/11 13:03:34;;;;;;;2.50;0.80;;;;;;;;;;4492694;28;20733;-59
2022/10/11 13:05:45;;;;;;;1.77;0.70;;;;;;;;;;4480255;28;20153;-59
2022/10/11 13:07:57;;;;;;;1.48;0.70;;;;;;;;;;4498658;28;20022;-59
2022/10/11 13:10:13;;;;;;;2.50;0.80;;;;;;;;;;4499111;28;20065;-63
2022/10/11 13:12:25;;;;;;;2.28;0.63;;;;;;;;;;4500109;28;20021;-59
2022/10/11 13:14:39;;;;;;;1.50;0.60;;;;;;;;;;4482122;28;25498;-59
2022/10/11 13:16:59;;;;;;;1.83;0.60;;;;;;;;;;4491004;28;20048;-59
2022/10/11 13:19:13;;;;;;;1.17;0.60;;;;;;;;;;4493550;28;20033;-59
2022/10/11 13:21:29;;;;;;;1.30;0.47;;;;;;;;;;4478597;28;20185;-59
2022/10/11 13:23:39;;;;;;;1.50;0.63;;;;;;;;;;4502368;28;20030;-59
2022/10/11 13:25:50;;;;;;;1.40;0.40;;;;;;;;;;4494775;28;30540;-59
2022/10/11 13:28:01;;;;;;;1.40;0.50;;;;;;;;;;4493461;28;20038;-59
2022/10/11 13:30:36;;;;;;;0.98;0.40;;;;;;;;;;4493697;28;20819;-59
2022/10/11 13:32:47;;;;;;;1.30;0.50;;;;;;;;;;4492286;28;20799;-59
2022/10/11 13:35:01;;;;;;;1.42;0.40;;;;;;;;;;4495162;28;20041;-59